createdAt,value
2023-04-11T00:01:04.699Z,95375.63
2023-04-11T00:04:06.575Z,95376.75
2023-04-11T00:07:10.549Z,95375.78
2023-04-11T00:10:12.323Z,95379.09
2023-04-11T00:13:13.972Z,95371.19
2023-04-11T00:16:18.549Z,95371.41
2023-04-11T00:19:20.687Z,95367.91
2023-04-11T00:22:22.234Z,95360.69
2023-04-11T00:25:24.134Z,95358.41
2023-04-11T00:28:27.329Z,95357.69
2023-04-11T00:31:32.753Z,95349.81
2023-04-11T00:34:34.320Z,95352.25
2023-04-11T00:37:38.834Z,95345.56
2023-04-11T00:40:40.656Z,95339.34
2023-04-11T00:43:43.212Z,95326.31
2023-04-11T00:46:46.391Z,95315.78
2023-04-11T00:49:50.376Z,95315.13
2023-04-11T00:52:54.479Z,95311.88
2023-04-11T00:55:56.169Z,95308.63
2023-04-11T00:58:58.420Z,95308.91
2023-04-11T01:02:03.082Z,95311.31
2023-04-11T01:05:05.183Z,95310.38
2023-04-11T01:08:07.298Z,95305.38
2023-04-11T01:11:09.632Z,95294.00
2023-04-11T01:14:11.182Z,95283.22
2023-04-11T01:17:15.630Z,95283.72
2023-04-11T01:20:17.301Z,95287.75
2023-04-11T01:23:22.948Z,95284.63
2023-04-11T01:26:24.461Z,95288.41
2023-04-11T01:29:27.259Z,95283.06
2023-04-11T01:32:29.376Z,95281.84
2023-04-11T01:35:31.550Z,95281.34
2023-04-11T01:38:37.559Z,95276.50
2023-04-11T01:41:40.268Z,95267.19
2023-04-11T01:44:42.929Z,95269.00
2023-04-11T01:47:44.712Z,95262.59
2023-04-11T01:50:46.519Z,95251.13
2023-04-11T01:53:49.462Z,95250.53
2023-04-11T01:56:51.012Z,95242.22
2023-04-11T01:59:53.568Z,95247.28
2023-04-11T02:02:55.218Z,95235.28
2023-04-11T02:06:00.703Z,95234.34
2023-04-11T02:09:03.697Z,95231.81
2023-04-11T02:12:05.535Z,95239.84
2023-04-11T02:15:07.695Z,95243.88
2023-04-11T02:18:09.710Z,95241.25
2023-04-11T02:21:11.796Z,95243.56
2023-04-11T02:24:14.892Z,95251.66
2023-04-11T02:27:16.571Z,95248.38
2023-04-11T02:30:19.450Z,95248.16
2023-04-11T02:33:22.394Z,95243.56
2023-04-11T02:36:24.979Z,95241.84
2023-04-11T02:39:30.980Z,95246.91
2023-04-11T02:42:32.515Z,95230.09
2023-04-11T02:45:34.382Z,95232.50
2023-04-11T02:48:36.192Z,95219.72
2023-04-11T02:51:40.061Z,95226.31
2023-04-11T02:54:43.028Z,95212.84
2023-04-11T02:57:44.715Z,95200.94
2023-04-11T03:00:47.472Z,95203.63
2023-04-11T03:03:49.107Z,95193.34
2023-04-11T03:06:50.842Z,95197.38
2023-04-11T03:09:54.768Z,95196.09
2023-04-11T03:12:56.333Z,95190.03
2023-04-11T03:15:59.858Z,95189.59
2023-04-11T03:19:05.205Z,95182.00
2023-04-11T03:22:08.459Z,95181.22
2023-04-11T03:25:11.831Z,95194.31
2023-04-11T03:28:16.436Z,95183.03
2023-04-11T03:31:18.022Z,95178.59
2023-04-11T03:34:20.266Z,95181.97
2023-04-11T03:37:23.560Z,95173.56
2023-04-11T03:40:26.737Z,95166.59
2023-04-11T03:43:33.440Z,95173.66
2023-04-11T03:46:37.587Z,95179.88
2023-04-11T03:49:41.270Z,95186.13
2023-04-11T03:52:42.816Z,95180.72
2023-04-11T03:55:46.042Z,95179.53
2023-04-11T03:58:48.131Z,95188.56
2023-04-11T04:01:49.743Z,95199.34
2023-04-11T04:04:52.583Z,95195.75
2023-04-11T04:07:56.059Z,95201.78
2023-04-11T04:10:59.108Z,95200.34
2023-04-11T04:14:01.817Z,95196.38
2023-04-11T04:17:03.360Z,95191.25
2023-04-11T04:20:05.396Z,95188.03
2023-04-11T04:23:06.884Z,95185.09
2023-04-11T04:26:09.802Z,95184.47
2023-04-11T04:29:11.620Z,95196.38
2023-04-11T04:32:14.378Z,95199.69
2023-04-11T04:35:19.525Z,95203.03
2023-04-11T04:38:21.461Z,95195.25
2023-04-11T04:41:27.387Z,95191.97
2023-04-11T04:44:31.792Z,95197.97
2023-04-11T04:47:34.164Z,95194.06
2023-04-11T04:50:40.506Z,95191.69
2023-04-11T04:53:42.576Z,95185.66
2023-04-11T04:56:49.480Z,95166.09
2023-04-11T04:59:51.008Z,95165.47
2023-04-11T05:02:52.813Z,95161.84
2023-04-11T05:05:54.687Z,95168.53
2023-04-11T05:08:57.015Z,95181.94
2023-04-11T05:11:59.938Z,95178.72
2023-04-11T05:15:01.530Z,95181.34
2023-04-11T05:18:04.132Z,95182.53
2023-04-11T05:21:08.692Z,95179.44
2023-04-11T05:24:10.816Z,95174.66
2023-04-11T05:27:13.714Z,95180.69
2023-04-11T05:30:15.781Z,95184.53
2023-04-11T05:33:17.636Z,95179.94
2023-04-11T05:36:19.241Z,95162.75
2023-04-11T05:39:21.832Z,95158.19
2023-04-11T05:42:26.621Z,95161.69
2023-04-11T05:45:28.184Z,95160.59
2023-04-11T05:48:30.341Z,95151.59
2023-04-11T05:51:32.986Z,95170.34
2023-04-11T05:54:36.404Z,95165.72
2023-04-11T05:57:39.506Z,95161.16
2023-04-11T06:00:41.882Z,95161.19
2023-04-11T06:03:43.585Z,95148.59
2023-04-11T06:06:45.243Z,95125.66
2023-04-11T06:09:47.782Z,95119.56
2023-04-11T06:12:51.596Z,95113.09
2023-04-11T06:15:56.561Z,95105.44
2023-04-11T06:18:58.203Z,95100.50
2023-04-11T06:22:00.822Z,95095.91
2023-04-11T06:25:02.359Z,95089.72
2023-04-11T06:28:09.051Z,95090.47
2023-04-11T06:31:10.643Z,95086.53
2023-04-11T06:34:13.416Z,95078.38
2023-04-11T06:37:15.096Z,95074.59
2023-04-11T06:40:18.094Z,95085.28
2023-04-11T06:43:21.241Z,95097.25
2023-04-11T06:46:23.346Z,95102.09
2023-04-11T06:49:25.298Z,95107.72
2023-04-11T06:52:28.258Z,95108.41
2023-04-11T06:55:31.825Z,95128.06
2023-04-11T06:58:34.784Z,95132.28
2023-04-11T07:01:37.081Z,95119.28
2023-04-11T07:04:40.663Z,95113.22
2023-04-11T07:07:42.263Z,95113.09
2023-04-11T07:10:45.753Z,95101.56
2023-04-11T07:13:49.358Z,95123.56
2023-04-11T07:16:51.153Z,95133.69
2023-04-11T07:20:00.355Z,95132.72
2023-04-11T07:23:02.440Z,95135.94
2023-04-11T07:26:04.505Z,95138.34
2023-04-11T07:29:13.100Z,95145.84
2023-04-11T07:32:16.140Z,95155.16
2023-04-11T07:35:19.670Z,95166.72
2023-04-11T07:38:21.323Z,95150.19
2023-04-11T07:41:23.884Z,95155.22
2023-04-11T07:44:27.399Z,95171.38
2023-04-11T07:47:29.272Z,95156.28
2023-04-11T07:50:32.359Z,95147.38
2023-04-11T07:53:33.900Z,95132.03
2023-04-11T07:56:37.994Z,95143.53
2023-04-11T07:59:41.103Z,95128.47
2023-04-11T08:02:42.760Z,95140.50
2023-04-11T08:05:46.176Z,95134.25
2023-04-11T08:08:48.570Z,95126.50
2023-04-11T08:11:51.554Z,95123.06
2023-04-11T08:14:54.554Z,95110.00
2023-04-11T08:17:57.157Z,95096.47
2023-04-11T08:20:59.216Z,95098.72
2023-04-11T08:24:00.810Z,95102.63
2023-04-11T08:27:03.760Z,95108.03
2023-04-11T08:30:08.333Z,95107.28
2023-04-11T08:33:10.125Z,95106.06
2023-04-11T08:36:12.132Z,95120.66
2023-04-11T08:39:13.791Z,95114.09
2023-04-11T08:42:23.986Z,95114.88
2023-04-11T08:45:27.404Z,95114.53
2023-04-11T08:48:29.879Z,95107.94
2023-04-11T08:51:32.213Z,95116.41
2023-04-11T08:54:36.257Z,95111.75
2023-04-11T08:57:37.772Z,95112.59
2023-04-11T09:00:41.235Z,95123.06
2023-04-11T09:03:50.648Z,95141.19
2023-04-11T09:06:58.389Z,95143.06
2023-04-11T09:10:17.339Z,95143.47
2023-04-11T09:13:20.161Z,95159.66
2023-04-11T09:16:23.104Z,95157.75
2023-04-11T09:19:26.387Z,95160.88
2023-04-11T09:22:35.104Z,95145.09
2023-04-11T09:25:43.775Z,95117.06
2023-04-11T09:28:46.300Z,95130.13
2023-04-11T09:31:50.729Z,95127.88
2023-04-11T09:34:52.426Z,95137.44
2023-04-11T09:37:57.477Z,95132.84
2023-04-11T09:40:59.664Z,95130.19
2023-04-11T09:44:02.004Z,95130.19
2023-04-11T09:47:05.001Z,95144.03
2023-04-11T09:50:07.229Z,95162.47
2023-04-11T09:53:09.078Z,95166.34
2023-04-11T09:56:12.310Z,95142.50
2023-04-11T09:59:14.755Z,95135.97
2023-04-11T10:02:17.756Z,95127.50
2023-04-11T10:05:22.362Z,95140.59
2023-04-11T10:08:27.972Z,95130.91
2023-04-11T10:11:29.728Z,95131.34
2023-04-11T10:14:44.686Z,95137.13
2023-04-11T10:18:08.484Z,95135.59
2023-04-11T10:21:42.444Z,95134.41
2023-04-11T10:25:11.290Z,95137.13
2023-04-11T10:28:29.090Z,95141.34
2023-04-11T10:31:34.834Z,95144.78
2023-04-11T10:34:37.999Z,95150.59
2023-04-11T10:37:39.653Z,95154.44
2023-04-11T10:41:13.927Z,95152.16
2023-04-11T10:44:21.161Z,95152.50
2023-04-11T10:47:23.107Z,95165.56
2023-04-11T10:50:38.294Z,95145.16
2023-04-11T10:53:39.894Z,95147.81
2023-04-11T10:57:00.163Z,95144.75
2023-04-11T11:03:13.943Z,95175.13
2023-04-11T11:06:16.951Z,95204.91
2023-04-11T11:09:20.630Z,95209.06
2023-04-11T11:12:22.214Z,95217.63
2023-04-11T11:15:23.987Z,95228.66
2023-04-11T11:18:25.968Z,95215.78
2023-04-11T11:21:32.722Z,95220.44
2023-04-11T11:24:35.002Z,95227.28
2023-04-11T11:27:36.516Z,95234.22
2023-04-11T11:30:49.257Z,95234.38
2023-04-11T11:33:50.873Z,95231.56
2023-04-11T11:36:54.483Z,95256.50
2023-04-11T11:39:56.374Z,95243.44
2023-04-11T11:42:58.856Z,95261.47
2023-04-11T11:46:08.666Z,95250.00
2023-04-11T11:49:10.772Z,95269.19
2023-04-11T11:52:30.171Z,95268.63
2023-04-11T11:55:33.265Z,95281.75
2023-04-11T11:58:42.669Z,95288.69
2023-04-11T12:01:46.072Z,95282.38
2023-04-11T12:04:48.040Z,95296.06
2023-04-11T12:07:53.612Z,95291.78
2023-04-11T12:10:56.514Z,95298.13
2023-04-11T12:13:58.496Z,95306.00
2023-04-11T12:17:00.244Z,95300.69
2023-04-11T12:20:03.536Z,95283.59
2023-04-11T12:23:05.287Z,95303.63
2023-04-11T12:26:08.278Z,95292.78
2023-04-11T12:29:10.389Z,95292.34
2023-04-11T12:32:14.589Z,95283.72
2023-04-11T12:35:16.111Z,95300.75
2023-04-11T12:38:18.193Z,95293.09
2023-04-11T12:41:32.062Z,95292.94
2023-04-11T12:44:34.289Z,95294.13
2023-04-11T12:47:36.074Z,95296.25
2023-04-11T12:50:40.891Z,95293.31
2023-04-11T12:53:42.410Z,95290.72
2023-04-11T12:56:47.312Z,95294.25
2023-04-11T12:59:48.842Z,95300.94
2023-04-11T13:02:50.775Z,95291.69
2023-04-11T13:05:52.830Z,95300.59
2023-04-11T13:08:54.896Z,95302.13
2023-04-11T13:11:59.012Z,95313.28
2023-04-11T13:15:00.714Z,95297.84
2023-04-11T13:18:02.668Z,95311.91
2023-04-11T13:21:04.531Z,95299.13
2023-04-11T13:24:06.195Z,95292.56
2023-04-11T13:27:10.407Z,95306.75
2023-04-11T13:30:12.477Z,95301.25
2023-04-11T13:33:14.075Z,95318.53
2023-04-11T13:36:16.150Z,95300.75
2023-04-11T13:39:20.205Z,95302.44
2023-04-11T13:42:23.177Z,95298.53
2023-04-11T13:45:25.625Z,95281.31
2023-04-11T13:48:29.913Z,95269.88
2023-04-11T13:51:31.499Z,95284.22
2023-04-11T13:54:37.437Z,95294.31
2023-04-11T13:57:40.337Z,95298.88
2023-04-11T14:00:46.239Z,95323.38
2023-04-11T14:03:48.053Z,95329.53
2023-04-11T14:06:49.715Z,95310.31
2023-04-11T14:09:54.645Z,95326.00
2023-04-11T14:12:57.626Z,95324.66
2023-04-11T14:16:07.905Z,95335.06
2023-04-11T14:19:10.949Z,95297.03
2023-04-11T14:22:12.587Z,95297.09
2023-04-11T14:25:15.616Z,95322.63
2023-04-11T14:28:19.598Z,95315.28
2023-04-11T14:31:21.299Z,95300.41
2023-04-11T14:34:24.879Z,95311.19
2023-04-11T14:37:26.545Z,95293.69
2023-04-11T14:40:32.693Z,95284.78
2023-04-11T14:43:36.091Z,95293.69
2023-04-11T14:46:37.895Z,95297.88
2023-04-11T14:49:40.801Z,95273.19
2023-04-11T14:52:43.169Z,95269.38
2023-04-11T14:55:44.961Z,95284.84
2023-04-11T14:58:50.949Z,95269.47
2023-04-11T15:01:53.780Z,95270.28
2023-04-11T15:04:55.424Z,95259.16
2023-04-11T15:07:57.479Z,95259.19
2023-04-11T15:11:00.971Z,95259.28
2023-04-11T15:14:04.067Z,95260.41
2023-04-11T15:17:05.832Z,95265.91
2023-04-11T15:20:08.465Z,95261.22
2023-04-11T15:23:13.176Z,95260.13
2023-04-11T15:26:14.768Z,95262.59
2023-04-11T15:29:22.484Z,95250.25
2023-04-11T15:32:26.781Z,95243.03
2023-04-11T15:35:28.602Z,95248.00
2023-04-11T15:38:31.083Z,95248.00
2023-04-11T15:41:33.141Z,95266.53
2023-04-11T15:44:36.355Z,95255.84
2023-04-11T15:47:37.961Z,95296.66
2023-04-11T15:50:40.192Z,95272.25
2023-04-11T15:53:43.036Z,95258.69
2023-04-11T15:56:46.004Z,95251.41
2023-04-11T15:59:49.217Z,95254.06
2023-04-11T16:02:51.290Z,95254.84
2023-04-11T16:05:54.439Z,95251.38
2023-04-11T16:08:56.127Z,95242.47
2023-04-11T16:11:57.645Z,95246.66
2023-04-11T16:15:02.588Z,95248.88
2023-04-11T16:18:06.277Z,95245.00
2023-04-11T16:21:12.012Z,95240.09
2023-04-11T16:24:13.530Z,95233.53
2023-04-11T16:27:15.109Z,95233.25
2023-04-11T16:30:18.340Z,95227.88
2023-04-11T16:33:19.911Z,95227.25
2023-04-11T16:36:22.009Z,95224.84
2023-04-11T16:39:23.951Z,95223.19
2023-04-11T16:42:25.565Z,95215.09
2023-04-11T16:45:31.268Z,95222.91
2023-04-11T16:48:36.167Z,95225.28
2023-04-11T16:51:38.170Z,95225.69
2023-04-11T16:54:39.735Z,95209.53
2023-04-11T16:57:41.547Z,95214.16
2023-04-11T17:00:45.152Z,95202.97
2023-04-11T17:03:47.298Z,95196.34
2023-04-11T17:06:49.195Z,95189.75
2023-04-11T17:09:50.922Z,95197.81
2023-04-11T17:12:52.656Z,95190.13
2023-04-11T17:15:55.636Z,95194.31
2023-04-11T17:18:59.810Z,95202.69
2023-04-11T17:22:01.418Z,95205.72
2023-04-11T17:25:03.573Z,95218.31
2023-04-11T17:28:05.319Z,95214.81
2023-04-11T17:31:13.687Z,95235.06
2023-04-11T17:34:15.876Z,95240.84
2023-04-11T17:37:17.565Z,95228.50
2023-04-11T17:40:20.965Z,95233.91
2023-04-11T17:43:22.685Z,95233.94
2023-04-11T17:46:26.474Z,95239.72
2023-04-11T17:49:28.158Z,95238.53
2023-04-11T17:52:29.776Z,95245.34
2023-04-11T17:55:33.639Z,95259.13
2023-04-11T17:58:35.305Z,95261.50
2023-04-11T18:01:39.502Z,95271.81
2023-04-11T18:04:41.259Z,95269.09
2023-04-11T18:07:46.935Z,95276.41
2023-04-11T18:10:49.152Z,95274.97
2023-04-11T18:13:51.212Z,95297.09
2023-04-11T18:16:54.382Z,95358.69
2023-04-11T18:19:58.385Z,95358.41
2023-04-11T18:23:00.121Z,95350.31
2023-04-11T18:26:01.809Z,95346.28
2023-04-11T18:29:03.341Z,95367.44
2023-04-11T18:32:07.691Z,95388.53
2023-04-11T18:35:09.746Z,95402.34
2023-04-11T18:38:13.777Z,95395.53
2023-04-11T18:41:16.438Z,95395.88
2023-04-11T18:44:18.058Z,95415.66
2023-04-11T18:47:21.460Z,95410.97
2023-04-11T18:50:23.137Z,95433.78
2023-04-11T18:53:25.425Z,95410.94
2023-04-11T18:56:27.727Z,95414.66
2023-04-11T18:59:36.851Z,95402.25
2023-04-11T19:02:42.417Z,95386.59
2023-04-11T19:05:45.249Z,95410.59
2023-04-11T19:08:51.372Z,95404.19
2023-04-11T19:11:53.629Z,95380.84
2023-04-11T19:14:55.798Z,95378.88
2023-04-11T19:18:00.350Z,95372.22
2023-04-11T19:21:04.699Z,95369.00
2023-04-11T19:24:06.503Z,95354.09
2023-04-11T19:27:08.894Z,95346.16
2023-04-11T19:30:12.864Z,95353.91
2023-04-11T19:33:18.474Z,95350.94
2023-04-11T19:36:23.101Z,95354.53
2023-04-11T19:39:25.692Z,95348.31
2023-04-11T19:42:29.373Z,95353.88
2023-04-11T19:45:33.169Z,95366.91
2023-04-11T19:48:37.288Z,95346.88
2023-04-11T19:51:39.517Z,95349.19
2023-04-11T19:54:42.336Z,95359.31
2023-04-11T19:57:44.244Z,95385.63
2023-04-11T20:00:48.260Z,95360.38
2023-04-11T20:03:53.782Z,95359.56
2023-04-11T20:06:56.482Z,95345.72
2023-04-11T20:09:58.664Z,95333.94
2023-04-11T20:13:00.987Z,95339.41
2023-04-11T20:16:03.778Z,95342.59
2023-04-11T20:19:20.588Z,95337.78
2023-04-11T20:22:25.252Z,95330.56
2023-04-11T20:25:28.441Z,95326.56
2023-04-11T20:28:30.426Z,95330.69
2023-04-11T20:31:32.145Z,95330.03
2023-04-11T20:34:36.595Z,95340.84
2023-04-11T20:37:38.597Z,95341.13
2023-04-11T20:40:42.433Z,95332.41
2023-04-11T20:43:44.176Z,95333.69
2023-04-11T20:46:46.479Z,95330.25
2023-04-11T20:49:53.755Z,95326.28
2023-04-11T20:52:55.625Z,95334.34
2023-04-11T20:55:57.143Z,95331.94
2023-04-11T20:59:00.550Z,95327.38
2023-04-11T21:02:02.287Z,95327.69
2023-04-11T21:05:05.964Z,95322.34
2023-04-11T21:08:08.083Z,95318.34
2023-04-11T21:11:09.625Z,95310.34
2023-04-11T21:14:11.153Z,95310.31
2023-04-11T21:17:13.731Z,95304.38
2023-04-11T21:20:19.064Z,95308.31
2023-04-11T21:23:20.698Z,95316.63
2023-04-11T21:26:22.287Z,95311.25
2023-04-11T21:29:26.043Z,95306.81
2023-04-11T21:32:27.679Z,95304.88
2023-04-11T21:35:32.244Z,95322.28
2023-04-11T21:38:34.032Z,95321.81
2023-04-11T21:41:35.878Z,95319.13
2023-04-11T21:44:37.491Z,95311.34
2023-04-11T21:47:39.283Z,95302.19
2023-04-11T21:50:43.490Z,95308.81
2023-04-11T21:53:45.845Z,95307.28
2023-04-11T21:56:47.819Z,95304.34
2023-04-11T21:59:49.345Z,95284.00
2023-04-11T22:02:53.507Z,95291.47
2023-04-11T22:05:57.036Z,95305.28
2023-04-11T22:09:00.381Z,95293.31
2023-04-11T22:12:01.924Z,95291.94
2023-04-11T22:15:03.828Z,95293.66
2023-04-11T22:18:08.513Z,95291.03
2023-04-11T22:21:11.494Z,95294.75
2023-04-11T22:24:13.074Z,95279.66
2023-04-11T22:27:18.481Z,95281.97
2023-04-11T22:30:20.039Z,95280.00
2023-04-11T22:33:23.325Z,95280.00
2023-04-11T22:36:26.548Z,95282.00
2023-04-11T22:39:28.103Z,95273.03
2023-04-11T22:42:29.793Z,95278.69
2023-04-11T22:45:32.146Z,95271.84
2023-04-11T22:48:33.734Z,95265.34
2023-04-11T22:51:37.067Z,95257.94
2023-04-11T22:54:38.621Z,95253.09
2023-04-11T22:57:40.339Z,95255.16
2023-04-11T23:00:45.026Z,95256.41
2023-04-11T23:03:46.671Z,95246.28
2023-04-11T23:06:50.970Z,95239.09
2023-04-11T23:09:53.106Z,95241.28
2023-04-11T23:12:54.686Z,95241.72
2023-04-11T23:15:56.522Z,95233.44
2023-04-11T23:18:58.049Z,95224.72
2023-04-11T23:22:01.040Z,95219.50
2023-04-11T23:25:02.713Z,95221.47
2023-04-11T23:28:05.877Z,95225.72
2023-04-11T23:31:18.754Z,95219.84
2023-04-11T23:34:20.342Z,95209.09
2023-04-11T23:37:23.487Z,95200.53
2023-04-11T23:40:26.824Z,95196.56
2023-04-11T23:43:28.365Z,95188.22
2023-04-11T23:46:33.889Z,95182.00
2023-04-11T23:49:35.812Z,95178.94
2023-04-11T23:52:39.187Z,95174.19
2023-04-11T23:55:42.266Z,95169.84
2023-04-11T23:58:44.244Z,95166.28
